Time;durP1;ratioP1;P1;durP2;ratioP2;P2;SDS_P1;SDS_P2;PMS_P1;PMS_P2;Temp;Humidity;BMP_temperature;BMP_pressure;BME280_temperature;BME280_humidity;BME280_pressure;Samples;Min_cycle;Max_cycle;Signal;HPM_P1;HPM_P2
2022/03/24 00:01:46;;;;;;;0.10;0.10;;;;;;;21.63;32.39;102497.69;5147093;27;20039;-25
2022/03/24 00:04:12;;;;;;;0.10;0.10;;;;;;;21.62;32.29;102501.59;5152510;27;20037;-26
2022/03/24 00:06:37;;;;;;;0.10;0.10;;;;;;;21.61;32.45;102505.47;5145484;27;20061;-26
2022/03/24 00:09:04;;;;;;;0.10;0.10;;;;;;;21.62;32.42;102504.34;5156401;27;20046;-26
2022/03/24 00:11:30;;;;;;;0.10;0.10;;;;;;;21.62;32.38;102502.41;5148466;27;20067;-26
2022/03/24 00:13:56;;;;;;;0.10;0.10;;;;;;;21.62;32.56;102496.03;5146971;27;20074;-25
2022/03/24 00:16:22;;;;;;;0.10;0.10;;;;;;;21.61;32.37;102494.38;5146514;27;20538;-25
2022/03/24 00:18:48;;;;;;;0.20;0.20;;;;;;;21.63;32.38;102497.69;5150797;27;20047;-25
2022/03/24 00:21:14;;;;;;;0.10;0.10;;;;;;;21.60;32.60;102493.53;5130948;27;20047;-25
2022/03/24 00:23:40;;;;;;;0.10;0.10;;;;;;;21.61;32.47;102486.06;5151946;27;20035;-25
2022/03/24 00:26:06;;;;;;;0.20;0.20;;;;;;;21.62;32.56;102490.50;5151658;27;20061;-25
2022/03/24 00:28:32;;;;;;;0.10;0.10;;;;;;;21.59;32.46;102486.31;5147864;27;20043;-25
2022/03/24 00:30:57;;;;;;;0.13;0.13;;;;;;;21.61;32.35;102486.06;5133847;27;20051;-26
2022/03/24 00:33:24;;;;;;;0.10;0.10;;;;;;;21.60;32.44;102484.38;5150074;27;20051;-25
2022/03/24 00:35:51;;;;;;;0.10;0.10;;;;;;;21.60;32.56;102484.38;5150554;27;20074;-26
2022/03/24 00:38:16;;;;;;;0.10;0.10;;;;;;;21.61;32.60;102483.28;5130177;27;20054;-25
2022/03/24 00:40:43;;;;;;;0.10;0.10;;;;;;;21.61;32.47;102477.72;5137371;27;20043;-26
2022/03/24 00:43:09;;;;;;;0.15;0.15;;;;;;;21.60;32.54;102474.13;5114981;27;20142;-26
2022/03/24 00:45:35;;;;;;;0.10;0.10;;;;;;;21.58;32.64;102483.78;5136077;27;20062;-26
2022/03/24 00:48:01;;;;;;;0.10;0.10;;;;;;;21.58;32.54;102483.78;5123367;27;20077;-25
2022/03/24 00:50:26;;;;;;;0.10;0.10;;;;;;;21.57;32.57;102473.81;5135055;27;20123;-26
2022/03/24 00:52:52;;;;;;;0.20;0.20;;;;;;;21.58;32.57;102476.31;5135153;27;20429;-28
2022/03/24 00:55:19;;;;;;;0.10;0.10;;;;;;;21.59;32.55;102474.38;5134064;27;20084;-28
2022/03/24 00:57:49;;;;;;;0.10;0.10;;;;;;;21.59;32.68;102477.13;5096852;27;20035;-27
2022/03/24 01:00:16;;;;;;;0.10;0.10;;;;;;;21.57;32.55;102480.19;5109880;27;20073;-27
2022/03/24 01:02:44;;;;;;;0.13;0.13;;;;;;;21.57;32.51;102473.81;5100436;27;20059;-29
2022/03/24 01:05:12;;;;;;;0.10;0.10;;;;;;;21.56;32.50;102470.19;5121281;27;20043;-28
2022/03/24 01:07:39;;;;;;;0.10;0.10;;;;;;;21.56;32.70;102470.19;5117814;27;20060;-27
2022/03/24 01:10:05;;;;;;;0.10;0.10;;;;;;;21.56;32.74;102475.75;5135109;27;20074;-28
2022/03/24 01:12:30;;;;;;;0.10;0.10;;;;;;;21.57;32.79;102482.13;5134364;27;20078;-28
2022/03/24 01:14:56;;;;;;;0.10;0.10;;;;;;;21.56;32.71;102475.75;5133571;27;20100;-27
2022/03/24 01:17:23;;;;;;;0.10;0.10;;;;;;;21.58;32.72;102472.69;5112906;27;20047;-28
2022/03/24 01:19:50;;;;;;;0.10;0.10;;;;;;;21.56;32.79;102478.50;5129714;27;20094;-27
2022/03/24 01:22:15;;;;;;;0.10;0.10;;;;;;;21.56;32.72;102477.69;5111775;27;20134;-27
2022/03/24 01:24:41;;;;;;;0.10;0.10;;;;;;;21.56;32.75;102470.19;5130238;27;20043;-27
2022/03/24 01:27:07;;;;;;;0.10;0.10;;;;;;;21.56;32.65;102470.19;5135123;27;20397;-27
2022/03/24 01:29:32;;;;;;;0.10;0.10;;;;;;;21.56;32.72;102472.13;5119248;27;20494;-27
2022/03/24 01:31:59;;;;;;;0.10;0.10;;;;;;;21.56;32.76;102472.13;5133805;27;20130;-27
2022/03/24 01:34:25;;;;;;;0.10;0.10;;;;;;;21.56;32.78;102470.19;5136328;27;20432;-27
2022/03/24 01:36:51;;;;;;;0.10;0.10;;;;;;;21.55;32.57;102471.31;5133677;27;20558;-27
2022/03/24 01:39:17;;;;;;;0.20;0.20;;;;;;;21.54;32.83;102467.69;5133284;27;20408;-28
2022/03/24 01:41:44;;;;;;;0.22;0.22;;;;;;;21.53;32.81;102463.22;5112507;28;20035;-28
2022/03/24 01:44:12;;;;;;;0.10;0.10;;;;;;;21.54;32.80;102464.94;5135427;27;20104;-28
2022/03/24 01:46:39;;;;;;;0.10;0.10;;;;;;;21.52;32.80;102463.50;5131585;27;20070;-28
2022/03/24 01:49:05;;;;;;;0.10;0.10;;;;;;;21.54;32.78;102464.94;5132685;27;20100;-28
2022/03/24 01:51:31;;;;;;;0.10;0.10;;;;;;;21.52;32.81;102463.50;5111968;27;20052;-28
2022/03/24 01:53:59;;;;;;;0.10;0.10;;;;;;;21.52;32.85;102467.09;5134638;27;20198;-28
2022/03/24 01:56:26;;;;;;;0.10;0.10;;;;;;;21.53;32.88;102463.22;5136401;27;20508;-28
2022/03/24 01:58:54;;;;;;;0.10;0.10;;;;;;;21.54;32.71;102464.06;5137234;27;20137;-28
2022/03/24 02:01:36;;;;;;;0.10;0.10;;;;;;;21.51;32.77;102459.88;5114905;27;20556;-28
2022/03/24 02:04:05;;;;;;;0.10;0.10;;;;;;;21.53;32.82;102465.16;5131931;27;20050;-29
2022/03/24 02:06:32;;;;;;;;;;;;;;;21.51;32.81;102457.13;5132228;27;20071;-29
2022/03/24 02:08:59;;;;;;;0.10;0.10;;;;;;;21.51;32.65;102461.84;5134276;27;20042;-28
2022/03/24 02:11:26;;;;;;;0.10;0.10;;;;;;;21.51;33.06;102457.13;5134768;27;20070;-29
2022/03/24 02:13:52;;;;;;;0.10;0.10;;;;;;;21.51;32.60;102456.28;5121296;27;20066;-28
2022/03/24 02:16:17;;;;;;;0.10;0.10;;;;;;;21.52;32.87;102455.19;5131154;27;20039;-28
2022/03/24 02:18:45;;;;;;;0.10;0.10;;;;;;;21.50;32.74;102454.59;5142159;27;20043;-28
2022/03/24 02:21:14;;;;;;;0.10;0.10;;;;;;;21.50;32.86;102455.44;5133393;27;20067;-27
2022/03/24 02:23:42;;;;;;;0.10;0.10;;;;;;;21.51;32.95;102448.81;5133695;27;20039;-27
2022/03/24 02:26:09;;;;;;;0.10;0.10;;;;;;;21.51;32.80;102456.28;5136856;27;20043;-28
2022/03/24 02:28:35;;;;;;;0.17;0.17;;;;;;;21.52;32.76;102452.41;5116496;27;20074;-28
2022/03/24 02:31:00;;;;;;;0.10;0.10;;;;;;;21.51;32.79;102446.03;5135302;27;20555;-28
2022/03/24 02:33:26;;;;;;;0.10;0.10;;;;;;;21.51;32.99;102436.88;5135395;27;20035;-27
2022/03/24 02:35:52;;;;;;;0.10;0.10;;;;;;;21.49;32.93;102450.97;5132672;27;20058;-28
2022/03/24 02:38:19;;;;;;;0.10;0.10;;;;;;;21.50;32.79;102444.38;5132855;27;20912;-28
2022/03/24 02:40:48;;;;;;;0.10;0.10;;;;;;;21.51;32.74;102447.97;5131855;27;20366;-27
2022/03/24 02:43:18;;;;;;;0.10;0.10;;;;;;;21.50;32.85;102444.38;5133609;27;20077;-27
2022/03/24 02:45:43;;;;;;;0.10;0.10;;;;;;;21.51;32.84;102446.03;5133533;27;20043;-28
2022/03/24 02:48:09;;;;;;;0.10;0.10;;;;;;;21.50;32.88;102440.72;5132457;27;20088;-28
2022/03/24 02:50:34;;;;;;;0.10;0.10;;;;;;;21.49;32.98;102437.13;5130279;27;20042;-27
2022/03/24 02:53:00;;;;;;;0.10;0.10;;;;;;;21.49;33.01;102445.44;5133279;27;20066;-28
2022/03/24 02:55:26;;;;;;;0.20;0.20;;;;;;;21.48;32.96;102449.31;5130360;27;20067;-27
2022/03/24 02:57:52;;;;;;;0.17;0.17;;;;;;;21.48;33.04;102443.78;5138306;27;20084;-28
2022/03/24 03:00:18;;;;;;;0.10;0.10;;;;;;;21.49;32.97;102442.66;5132590;27;20454;-27
2022/03/24 03:02:44;;;;;;;0.20;0.20;;;;;;;21.49;32.89;102445.44;5135192;27;20396;-27
2022/03/24 03:05:10;;;;;;;0.10;0.10;;;;;;;21.48;33.04;102449.31;5139430;27;20043;-27
2022/03/24 03:07:35;;;;;;;0.20;0.20;;;;;;;21.49;32.81;102450.16;5134605;27;20042;-27
2022/03/24 03:10:01;;;;;;;0.20;0.20;;;;;;;21.48;33.03;102456.78;5132031;27;20066;-27
2022/03/24 03:12:27;;;;;;;0.10;0.10;;;;;;;21.49;32.94;102452.91;5131915;27;20042;-28
2022/03/24 03:14:54;;;;;;;0.10;0.10;;;;;;;21.47;32.82;102455.97;5138782;27;20469;-27
2022/03/24 03:17:20;;;;;;;0.10;0.10;;;;;;;21.48;32.95;102459.56;5115466;27;20078;-28
2022/03/24 03:19:46;;;;;;;0.10;0.10;;;;;;;21.48;32.91;102454.84;5130906;27;20043;-29
2022/03/24 03:22:12;;;;;;;0.10;0.10;;;;;;;21.48;33.04;102451.25;5132174;27;20372;-28
2022/03/24 03:24:39;;;;;;;0.10;0.10;;;;;;;21.48;32.95;102454.03;5133040;27;20083;-28
2022/03/24 03:27:06;;;;;;;0.10;0.10;;;;;;;21.48;33.02;102460.41;5132582;27;20490;-27
2022/03/24 03:29:32;;;;;;;0.10;0.10;;;;;;;21.48;32.90;102462.34;5099257;27;20070;-27
2022/03/24 03:31:57;;;;;;;0.10;0.10;;;;;;;21.48;33.13;102460.41;5133799;27;20496;-28
2022/03/24 03:34:24;;;;;;;0.10;0.10;;;;;;;21.48;33.06;102459.56;5132282;27;20100;-28
2022/03/24 03:36:53;;;;;;;0.10;0.10;;;;;;;21.48;33.02;102456.78;5130629;27;20075;-28
2022/03/24 03:39:19;;;;;;;0.10;0.10;;;;;;;21.47;32.92;102453.19;5119374;27;20564;-28
2022/03/24 03:41:45;;;;;;;0.10;0.10;;;;;;;21.47;33.01;102452.34;5116613;27;20063;-27
2022/03/24 03:44:11;;;;;;;0.13;0.13;;;;;;;21.47;32.96;102455.13;5136547;27;20080;-27
2022/03/24 03:46:37;;;;;;;0.10;0.10;;;;;;;21.47;33.12;102453.19;5130062;27;20488;-27
2022/03/24 03:49:04;;;;;;;0.10;0.10;;;;;;;21.47;32.98;102449.59;5137832;27;20046;-29
2022/03/24 03:51:31;;;;;;;0.10;0.10;;;;;;;21.47;33.06;102453.19;5110868;27;20081;-28
2022/03/24 03:53:57;;;;;;;0.10;0.10;;;;;;;21.48;32.98;102459.56;5135605;27;20506;-28
2022/03/24 03:56:23;;;;;;;0.10;0.10;;;;;;;21.46;32.99;102462.59;5138036;27;20477;-27
2022/03/24 03:58:49;;;;;;;0.10;0.10;;;;;;;21.45;32.97;102458.13;5138317;27;20086;-27
2022/03/24 04:01:15;;;;;;;0.20;0.20;;;;;;;21.46;33.23;102467.28;5096565;27;20082;-27
2022/03/24 04:03:41;;;;;;;0.10;0.10;;;;;;;21.46;33.08;102470.06;5130440;27;20039;-27
2022/03/24 04:06:10;;;;;;;0.10;0.10;;;;;;;21.46;33.18;102461.75;5130702;27;20358;-27
2022/03/24 04:08:37;;;;;;;0.10;0.10;;;;;;;21.46;33.07;102476.47;5136402;27;20038;-27
2022/03/24 04:11:07;;;;;;;0.10;0.10;;;;;;;21.46;33.07;102470.06;5131594;27;20079;-27
2022/03/24 04:13:34;;;;;;;0.10;0.10;;;;;;;21.45;33.03;102465.63;5133157;27;20066;-27
2022/03/24 04:16:01;;;;;;;0.10;0.10;;;;;;;21.45;33.20;102462.84;5132443;27;20066;-27
2022/03/24 04:18:26;;;;;;;0.20;0.20;;;;;;;21.46;33.13;102467.28;5136360;27;20080;-27
2022/03/24 04:20:52;;;;;;;0.10;0.10;;;;;;;21.44;33.01;102467.56;5134651;27;20075;-27
2022/03/24 04:23:18;;;;;;;0.10;0.10;;;;;;;21.45;33.20;102472.00;5134429;27;20046;-28
2022/03/24 04:25:45;;;;;;;0.10;0.10;;;;;;;21.44;33.03;102462.00;5116588;27;20046;-28
2022/03/24 04:28:11;;;;;;;0.10;0.10;;;;;;;21.45;33.07;102473.94;5134177;27;20127;-26
2022/03/24 04:30:37;;;;;;;0.10;0.10;;;;;;;21.46;32.84;102472.84;5116408;27;20077;-27
2022/03/24 04:33:04;;;;;;;0.20;0.20;;;;;;;21.44;33.21;102467.56;5140285;27;20043;-28
2022/03/24 04:35:31;;;;;;;0.10;0.10;;;;;;;21.44;33.12;102461.19;5133660;27;20092;-29
2022/03/24 04:37:57;;;;;;;0.10;0.10;;;;;;;21.44;33.02;102463.97;5116525;27;20603;-28
2022/03/24 04:40:24;;;;;;;0.10;0.10;;;;;;;21.44;33.13;102462.00;5140087;27;20042;-27
2022/03/24 04:42:52;;;;;;;0.10;0.10;;;;;;;21.45;33.07;102465.63;5104660;27;20549;-28
2022/03/24 04:45:19;;;;;;;0.10;0.10;;;;;;;21.43;33.28;102463.13;5115015;27;20039;-28
2022/03/24 04:47:45;;;;;;;0.10;0.10;;;;;;;21.43;33.22;102460.34;5136901;27;20134;-30
2022/03/24 04:50:12;;;;;;;0.10;0.10;;;;;;;21.45;33.17;102471.16;5116030;27;20454;-28
2022/03/24 04:52:38;;;;;;;0.10;0.10;;;;;;;21.43;33.03;102473.38;5114997;27;20465;-27
2022/03/24 04:55:04;;;;;;;0.15;0.15;;;;;;;21.44;33.25;102463.97;5137326;27;20039;-27
2022/03/24 04:57:30;;;;;;;0.20;0.20;;;;;;;21.42;33.12;102464.22;5117169;27;20034;-28
2022/03/24 04:59:57;;;;;;;0.10;0.10;;;;;;;21.43;33.28;102471.44;5116613;27;20101;-28
2022/03/24 05:02:24;;;;;;;0.17;0.17;;;;;;;21.43;33.12;102468.66;5105020;27;20081;-27
2022/03/24 05:04:50;;;;;;;0.20;0.20;;;;;;;21.43;33.22;102476.16;5139814;27;20054;-28
2022/03/24 05:07:16;;;;;;;0.10;0.10;;;;;;;21.42;33.06;102471.69;5135710;27;20082;-28
2022/03/24 05:09:42;;;;;;;0.10;0.10;;;;;;;21.44;33.20;102472.28;5135463;27;20064;-27
2022/03/24 05:12:11;;;;;;;0.10;0.10;;;;;;;21.43;33.30;102476.16;5136237;27;20047;-28
2022/03/24 05:14:37;;;;;;;0.20;0.20;;;;;;;21.42;33.25;102478.09;5117585;27;20076;-28
2022/03/24 05:17:03;;;;;;;0.13;0.13;;;;;;;21.43;33.17;102478.91;5116999;27;20141;-28
2022/03/24 05:19:31;;;;;;;0.10;0.10;;;;;;;21.43;33.10;102476.16;5115459;27;20126;-28
2022/03/24 05:21:57;;;;;;;0.10;0.10;;;;;;;21.43;33.30;102478.91;5132898;27;20471;-28
2022/03/24 05:24:22;;;;;;;0.10;0.10;;;;;;;21.44;33.09;102483.34;5112045;27;20039;-28
2022/03/24 05:26:48;;;;;;;0.15;0.15;;;;;;;21.43;33.22;102481.69;5135142;27;20058;-28
2022/03/24 05:29:14;;;;;;;0.10;0.10;;;;;;;21.42;33.34;102480.03;5142606;27;20526;-28
2022/03/24 05:31:39;;;;;;;0.17;0.17;;;;;;;21.43;33.28;102484.47;5135870;27;20039;-28
2022/03/24 05:34:05;;;;;;;0.10;0.10;;;;;;;21.43;33.38;102479.75;5133455;27;20062;-27
2022/03/24 05:36:31;;;;;;;0.10;0.10;;;;;;;21.42;33.09;102478.09;5134805;27;20051;-28
2022/03/24 05:38:57;;;;;;;0.10;0.10;;;;;;;21.42;33.06;102485.56;5136365;27;20050;-28
2022/03/24 05:41:24;;;;;;;0.10;0.10;;;;;;;21.42;33.29;102472.53;5115158;27;20112;-28
2022/03/24 05:44:05;;;;;;;0.10;0.10;;;;;;;21.42;33.38;102478.09;5117435;27;20120;-28
2022/03/24 05:46:44;;;;;;;0.10;0.10;;;;;;;21.43;33.42;102474.22;5131644;27;20039;-28
2022/03/24 05:49:15;;;;;;;0.10;0.10;;;;;;;21.43;33.29;102484.47;5119014;27;20142;-27
2022/03/24 05:51:43;;;;;;;0.10;0.10;;;;;;;21.41;33.36;102479.16;5127924;27;20079;-28
2022/03/24 05:54:09;;;;;;;0.10;0.10;;;;;;;21.41;33.15;102483.88;5127263;27;20112;-27
2022/03/24 05:56:35;;;;;;;0.10;0.10;;;;;;;21.42;33.15;102482.78;5132548;27;20079;-27
2022/03/24 05:59:01;;;;;;;0.10;0.10;;;;;;;21.40;33.35;102491.34;5133645;27;20054;-27
2022/03/24 06:01:27;;;;;;;0.10;0.10;;;;;;;21.42;33.21;102488.34;5134092;27;20053;-27
2022/03/24 06:03:53;;;;;;;0.10;0.10;;;;;;;21.42;33.19;102486.41;5131764;27;20393;-27
2022/03/24 06:06:21;;;;;;;0.10;0.10;;;;;;;21.43;33.30;102487.22;5130855;27;20370;-27
2022/03/24 06:08:47;;;;;;;0.10;0.10;;;;;;;21.41;33.22;102484.69;5111616;27;20041;-28
2022/03/24 06:11:13;;;;;;;0.10;0.10;;;;;;;21.41;33.29;102493.00;5131129;27;20077;-27
2022/03/24 06:13:40;;;;;;;0.10;0.10;;;;;;;21.41;33.37;102487.47;5132831;27;20043;-28
2022/03/24 06:16:06;;;;;;;0.10;0.10;;;;;;;21.41;33.37;102495.78;5130685;27;20350;-27
2022/03/24 06:18:32;;;;;;;0.20;0.20;;;;;;;21.41;33.35;102494.94;5133832;27;20074;-27
2022/03/24 06:20:59;;;;;;;0.20;0.20;;;;;;;21.41;33.25;102498.56;5099332;27;20493;-27
2022/03/24 06:23:25;;;;;;;0.10;0.10;;;;;;;21.41;33.30;102497.72;5107626;27;20511;-28
2022/03/24 06:25:51;;;;;;;0.20;0.20;;;;;;;21.40;33.36;102491.34;5127159;27;20129;-27
2022/03/24 06:28:17;;;;;;;0.17;0.17;;;;;;;21.40;33.30;102494.13;5126963;27;20046;-27
2022/03/24 06:30:42;;;;;;;0.10;0.10;;;;;;;21.41;33.18;102494.94;5132151;27;20439;-27
2022/03/24 06:33:08;;;;;;;0.10;0.10;;;;;;;21.41;33.29;102503.25;5113092;27;20039;-27
2022/03/24 06:35:34;;;;;;;0.15;0.15;;;;;;;21.40;33.45;102501.59;5126870;27;20039;-27
2022/03/24 06:38:00;;;;;;;0.10;0.10;;;;;;;21.39;33.22;102495.22;5111955;28;20493;-28
2022/03/24 06:40:25;;;;;;;0.20;0.20;;;;;;;21.39;33.32;102502.69;5124925;27;20078;-28
2022/03/24 06:42:52;;;;;;;0.10;0.10;;;;;;;21.39;33.25;102502.69;5122483;27;20039;-27
2022/03/24 06:45:18;;;;;;;0.10;0.10;;;;;;;21.40;33.16;102507.13;5121569;27;20478;-27
2022/03/24 06:47:44;;;;;;;0.10;0.10;;;;;;;21.39;33.13;102497.16;5129866;27;20243;-27
2022/03/24 06:50:12;;;;;;;0.10;0.10;;;;;;;21.39;33.35;102497.16;5120229;27;20713;-27
2022/03/24 06:52:38;;;;;;;0.10;0.10;;;;;;;21.39;32.94;102500.75;5105815;28;20481;-28
2022/03/24 06:55:05;;;;;;;0.10;0.10;;;;;;;21.40;33.04;102501.59;5119017;27;20127;-26
2022/03/24 06:57:31;;;;;;;0.10;0.10;;;;;;;21.40;33.08;102504.38;5125235;27;20078;-27
2022/03/24 06:59:56;;;;;;;0.20;0.20;;;;;;;21.39;33.17;102503.53;5078308;27;20119;-28
2022/03/24 07:02:22;;;;;;;0.10;0.10;;;;;;;21.39;32.90;102500.75;5102228;27;20047;-28
2022/03/24 07:04:51;;;;;;;0.10;0.10;;;;;;;21.38;33.19;102501.88;5090860;27;20051;-27
2022/03/24 07:07:17;;;;;;;0.10;0.10;;;;;;;21.38;33.16;102501.88;5117796;27;20047;-28
2022/03/24 07:09:43;;;;;;;0.10;0.10;;;;;;;21.37;33.16;102496.56;5117177;27;20129;-27
2022/03/24 07:12:09;;;;;;;0.10;0.10;;;;;;;21.38;33.00;102501.88;5116685;27;20043;-27
2022/03/24 07:14:34;;;;;;;0.10;0.10;;;;;;;21.38;32.90;102506.56;5113589;27;20130;-28
2022/03/24 07:17:00;;;;;;;0.10;0.10;;;;;;;21.38;32.97;102506.56;5115188;27;20047;-27
2022/03/24 07:19:26;;;;;;;0.10;0.10;;;;;;;21.38;32.99;102501.03;5114888;27;20047;-27
2022/03/24 07:21:52;;;;;;;0.10;0.10;;;;;;;21.37;32.96;102508.47;5113826;27;20047;-27
2022/03/24 07:24:22;;;;;;;0.20;0.20;;;;;;;21.37;33.07;102513.19;5119968;27;20061;-27
2022/03/24 07:26:48;;;;;;;0.10;0.10;;;;;;;21.38;33.03;102514.88;5116104;27;20346;-26
2022/03/24 07:29:13;;;;;;;0.15;0.15;;;;;;;21.37;33.02;102521.50;5115126;27;20066;-27
2022/03/24 07:31:39;;;;;;;0.10;0.10;;;;;;;21.37;33.09;102518.72;5112826;27;20455;-28
2022/03/24 07:34:06;;;;;;;0.10;0.10;;;;;;;21.37;32.98;102519.56;5108775;27;20406;-27
2022/03/24 07:36:31;;;;;;;0.10;0.10;;;;;;;21.38;33.06;102523.19;5113714;27;20074;-27
2022/03/24 07:38:58;;;;;;;0.10;0.10;;;;;;;21.38;33.13;102507.41;5119588;27;20035;-27
2022/03/24 07:41:24;;;;;;;0.10;0.10;;;;;;;21.39;33.03;102519.31;5100487;27;20137;-28
2022/03/24 07:43:50;;;;;;;0.15;0.15;;;;;;;21.38;32.95;102523.19;5117431;27;20157;-27
2022/03/24 07:46:16;;;;;;;0.10;0.10;;;;;;;21.39;32.78;102524.88;5115566;27;20083;-27
2022/03/24 07:48:46;;;;;;;0.10;0.10;;;;;;;21.37;33.02;102524.28;5117951;27;20566;-27
2022/03/24 07:51:13;;;;;;;0.20;0.20;;;;;;;21.38;33.04;102524.03;5114329;27;20071;-27
2022/03/24 07:53:51;;;;;;;0.10;0.10;;;;;;;21.38;33.04;102517.66;5120132;27;20086;-27
2022/03/24 07:56:18;;;;;;;0.10;0.10;;;;;;;21.39;33.06;102522.09;5100524;27;20612;-28
2022/03/24 07:58:44;;;;;;;0.10;0.10;;;;;;;21.38;32.90;102525.97;5108359;27;20591;-27
2022/03/24 08:01:10;;;;;;;0.20;0.20;;;;;;;21.37;33.01;102525.09;5096350;27;20130;-28
2022/03/24 08:03:36;;;;;;;0.17;0.17;;;;;;;21.37;32.97;102522.34;5114375;27;20047;-27
2022/03/24 08:06:02;;;;;;;0.20;0.20;;;;;;;21.37;33.03;102533.41;5118249;27;20180;-27
2022/03/24 08:08:29;;;;;;;0.10;0.10;;;;;;;21.38;32.92;102523.19;5101789;28;20082;-27
2022/03/24 08:10:55;;;;;;;0.10;0.10;;;;;;;21.34;32.90;102528.41;5124965;27;20051;-27
2022/03/24 08:13:21;;;;;;;0.17;0.17;;;;;;;21.40;32.69;102532.09;5099103;27;20054;-27
2022/03/24 08:15:48;;;;;;;0.10;0.10;;;;;;;21.39;32.74;102533.19;5118741;27;20090;-27
2022/03/24 08:18:15;;;;;;;0.20;0.20;;;;;;;21.41;32.82;102534.59;5117265;27;20149;-27
2022/03/24 08:20:43;;;;;;;0.10;0.10;;;;;;;21.40;32.86;102544.00;5101904;27;20446;-27
2022/03/24 08:23:10;;;;;;;0.20;0.20;;;;;;;21.41;32.75;102537.34;5119352;27;20035;-27
2022/03/24 08:25:37;;;;;;;0.10;0.10;;;;;;;21.43;32.71;102537.13;5094218;27;20149;-27
2022/03/24 08:28:03;;;;;;;0.10;0.10;;;;;;;21.43;32.94;102537.94;5096613;27;20078;-27
2022/03/24 08:30:29;;;;;;;0.20;0.20;;;;;;;21.43;32.81;102537.94;5118137;27;20138;-27
2022/03/24 08:32:54;;;;;;;0.10;0.10;;;;;;;21.43;32.72;102537.94;5116199;27;20079;-27
2022/03/24 08:35:20;;;;;;;0.10;0.10;;;;;;;21.44;32.94;102539.63;5114004;27;20039;-28
2022/03/24 08:37:46;;;;;;;0.20;0.20;;;;;;;21.45;32.91;102540.47;5114901;27;20054;-28
2022/03/24 08:40:12;;;;;;;0.20;0.20;;;;;;;21.46;32.79;102534.69;5117124;27;20079;-27
2022/03/24 08:42:39;;;;;;;0.10;0.10;;;;;;;21.47;32.78;102536.34;5123719;27;20054;-27
2022/03/24 08:45:06;;;;;;;0.10;0.10;;;;;;;21.47;32.82;102539.13;5104336;27;20378;-26
2022/03/24 08:47:33;;;;;;;0.10;0.10;;;;;;;21.48;32.55;102539.94;5117152;27;20067;-28
2022/03/24 08:49:59;;;;;;;0.10;0.10;;;;;;;21.43;32.08;102537.94;5118240;27;20170;-27
2022/03/24 08:52:27;;;;;;;0.20;0.20;;;;;;;21.51;32.33;102539.44;5098168;27;20055;-27
2022/03/24 08:54:54;;;;;;;0.10;0.10;;;;;;;21.50;32.37;102544.16;5118160;27;20074;-28
2022/03/24 08:57:26;;;;;;;0.17;0.17;;;;;;;21.53;32.40;102538.06;5112882;27;20039;-27
2022/03/24 08:59:53;;;;;;;0.10;0.10;;;;;;;21.53;32.40;102538.06;5111741;27;20283;-26
2022/03/24 09:02:19;;;;;;;0.20;0.20;;;;;;;21.54;32.50;102538.91;5099841;27;20079;-27
2022/03/24 09:04:44;;;;;;;0.10;0.10;;;;;;;21.56;32.51;102544.22;5119601;27;20565;-28
2022/03/24 09:07:30;;;;;;;0.10;0.10;;;;;;;21.56;32.51;102539.50;5100965;27;20070;-26
2022/03/24 09:09:56;;;;;;;0.10;0.10;;;;;;;21.57;32.47;102543.94;5124295;27;20047;-27
2022/03/24 09:12:22;;;;;;;0.10;0.10;;;;;;;21.58;32.64;102544.78;5126675;27;20095;-27
2022/03/24 09:14:47;;;;;;;0.10;0.10;;;;;;;21.58;32.52;102542.84;5129712;27;20047;-27
2022/03/24 09:17:13;;;;;;;0.10;0.10;;;;;;;21.59;32.40;102540.91;5126474;27;20043;-29
2022/03/24 09:19:39;;;;;;;0.10;0.10;;;;;;;21.60;32.44;102542.59;5120981;27;20078;-27
2022/03/24 09:22:05;;;;;;;0.10;0.10;;;;;;;21.61;32.54;102550.66;5123789;27;20531;-27
2022/03/24 09:24:36;;;;;;;0.10;0.10;;;;;;;21.62;32.27;102544.00;5126644;27;20069;-26
2022/03/24 09:27:03;;;;;;;0.10;0.10;;;;;;;21.62;32.40;102549.53;5094281;27;20508;-27
2022/03/24 09:29:30;;;;;;;0.10;0.10;;;;;;;21.63;32.33;102545.69;5115244;27;20071;-27
2022/03/24 09:31:55;;;;;;;0.10;0.10;;;;;;;21.64;32.28;102543.75;5111703;27;20111;-27
2022/03/24 09:34:22;;;;;;;0.10;0.10;;;;;;;21.65;32.33;102545.44;5111745;27;20047;-27
2022/03/24 09:36:47;;;;;;;0.20;0.20;;;;;;;21.66;32.54;102538.78;5119938;27;20465;-27
2022/03/24 09:39:15;;;;;;;0.10;0.10;;;;;;;21.67;32.34;102541.28;5112082;27;20147;-27
2022/03/24 09:41:43;;;;;;;0.10;0.10;;;;;;;21.67;32.39;102546.84;5103384;27;20404;-27
2022/03/24 09:44:09;;;;;;;0.10;0.10;;;;;;;21.67;32.11;102543.22;5109850;27;20513;-27
2022/03/24 09:46:34;;;;;;;0.20;0.20;;;;;;;21.68;32.23;102540.22;5114191;27;20039;-28
2022/03/24 09:49:00;;;;;;;0.20;0.20;;;;;;;21.70;32.20;102542.72;5123293;27;20424;-27
2022/03/24 09:51:26;;;;;;;0.10;0.10;;;;;;;21.70;32.19;102538.00;5116560;27;20047;-27
2022/03/24 09:53:52;;;;;;;0.10;0.10;;;;;;;21.70;32.22;102535.22;5102513;27;20076;-27
2022/03/24 09:56:19;;;;;;;0.10;0.10;;;;;;;21.71;32.16;102541.59;5118229;27;20071;-27
2022/03/24 09:58:47;;;;;;;0.10;0.10;;;;;;;21.72;32.10;102544.16;5081809;27;20145;-27
2022/03/24 10:01:15;;;;;;;0.10;0.10;;;;;;;21.71;32.15;102533.28;5097077;27;20047;-29
2022/03/24 10:04:02;;;;;;;0.10;0.10;;;;;;;21.70;32.27;102538.00;5114642;27;20455;-26
2022/03/24 10:06:27;;;;;;;0.10;0.10;;;;;;;21.71;32.32;102536.06;5115376;27;20093;-25
2022/03/24 10:08:53;;;;;;;0.10;0.10;;;;;;;21.70;32.27;102532.47;5119495;27;20473;-27
2022/03/24 10:11:20;;;;;;;0.10;0.10;;;;;;;21.70;32.21;102535.22;5114821;27;20047;-27
2022/03/24 10:13:53;;;;;;;0.20;0.20;;;;;;;21.70;32.30;102529.69;5118350;27;20075;-27
2022/03/24 10:16:41;;;;;;;0.20;0.20;;;;;;;21.70;32.34;102526.06;5098234;28;20067;-28
2022/03/24 10:19:10;;;;;;;0.10;0.10;;;;;;;21.69;32.16;102528.00;5101728;27;20049;-27
2022/03/24 10:21:37;;;;;;;0.10;0.10;;;;;;;21.70;32.30;102529.69;5116158;27;20070;-27
2022/03/24 10:24:13;;;;;;;0.10;0.10;;;;;;;21.70;32.52;102526.91;5116609;27;20051;-27
2022/03/24 10:26:42;;;;;;;0.10;0.10;;;;;;;21.69;32.28;102528.00;5118423;27;20549;-27
2022/03/24 10:29:09;;;;;;;0.10;0.10;;;;;;;21.68;32.41;102526.34;5100470;27;20071;-27
2022/03/24 10:31:36;;;;;;;0.10;0.10;;;;;;;21.68;32.29;102525.50;5079250;27;20113;-27
2022/03/24 10:34:02;;;;;;;0.10;0.10;;;;;;;21.69;32.48;102529.97;5117794;27;20039;-26
2022/03/24 10:36:30;;;;;;;0.10;0.10;;;;;;;21.68;32.50;102522.75;5124169;27;20576;-26
2022/03/24 10:38:59;;;;;;;0.10;0.10;;;;;;;21.68;32.11;102528.28;5100523;27;20484;-26
2022/03/24 10:41:27;;;;;;;0.10;0.10;;;;;;;21.68;32.27;102522.75;5097114;27;20138;-29
2022/03/24 10:43:55;;;;;;;0.10;0.10;;;;;;;21.68;32.13;102525.50;5107924;27;20126;-27
2022/03/24 10:46:25;;;;;;;0.10;0.10;;;;;;;21.66;32.32;102514.66;5093965;27;23018;-28
2022/03/24 10:48:51;;;;;;;;;;;;;;;21.67;32.24;102519.09;5099326;27;20053;-26
2022/03/24 10:51:27;;;;;;;0.10;0.10;;;;;;;21.67;32.21;102516.34;5123854;27;20321;-28
2022/03/24 10:54:10;;;;;;;0.10;0.10;;;;;;;21.67;32.35;102519.09;5110915;27;20477;-28
2022/03/24 10:56:39;;;;;;;0.10;0.10;;;;;;;21.67;32.34;102519.09;5127904;27;20044;-27
2022/03/24 10:59:05;;;;;;;0.20;0.20;;;;;;;21.68;32.29;102512.50;5131696;27;20054;-27
2022/03/24 11:01:32;;;;;;;0.20;0.20;;;;;;;21.67;32.26;102512.72;5108746;27;20082;-27
2022/03/24 11:03:58;;;;;;;0.10;0.10;;;;;;;21.67;32.37;102519.09;5129021;27;20043;-27
2022/03/24 11:06:24;;;;;;;0.10;0.10;;;;;;;21.66;32.30;102514.66;5125098;27;20103;-28
2022/03/24 11:08:59;;;;;;;0.13;0.13;;;;;;;21.66;32.21;102520.22;5113102;27;20179;-27
2022/03/24 11:11:25;;;;;;;0.20;0.20;;;;;;;21.65;32.21;102507.44;5094552;27;20633;-27
2022/03/24 11:13:57;;;;;;;0.20;0.20;;;;;;;21.66;32.18;102511.06;5114493;27;20146;-27
2022/03/24 11:16:28;;;;;;;0.10;0.10;;;;;;;21.64;32.16;102516.88;5111870;27;20410;-27
2022/03/24 11:18:56;;;;;;;0.20;0.20;;;;;;;21.66;32.28;102511.06;5078330;28;20059;-26
2022/03/24 11:21:32;;;;;;;0.10;0.10;;;;;;;21.64;32.13;102505.78;5092866;27;20075;-27
2022/03/24 11:23:58;;;;;;;0.10;0.10;;;;;;;21.65;32.04;102507.44;5116808;27;20538;-27
2022/03/24 11:26:25;;;;;;;0.20;0.20;;;;;;;21.66;32.17;102508.28;5115978;27;20039;-27